Time;durP1;ratioP1;P1;durP2;ratioP2;P2;SDS_P1;SDS_P2;PMS_P1;PMS_P2;Temp;Humidity;BMP_temperature;BMP_pressure;BME280_temperature;BME280_humidity;BME280_pressure;Samples;Min_cycle;Max_cycle;Signal;HPM_P1;HPM_P2
2022/08/24 00:00:23;;;;;;;3.65;1.48;;;23.20;99.90;;;;;;5030810;28;20209;-82
2022/08/24 00:02:49;;;;;;;2.03;1.23;;;23.20;99.90;;;;;;5031989;28;20191;-82
2022/08/24 00:05:15;;;;;;;2.15;1.40;;;23.30;99.90;;;;;;5031026;28;20164;-82
2022/08/24 00:07:41;;;;;;;3.08;1.48;;;23.30;99.90;;;;;;5030539;28;20529;-82
2022/08/24 00:10:09;;;;;;;2.38;1.00;;;23.20;99.90;;;;;;5030354;28;20175;-82
2022/08/24 00:12:35;;;;;;;8.38;1.50;;;23.10;99.90;;;;;;5032717;28;20242;-82
2022/08/24 00:15:01;;;;;;;2.97;1.60;;;23.00;99.90;;;;;;5034254;28;20167;-82
2022/08/24 00:17:26;;;;;;;3.35;1.38;;;23.10;99.90;;;;;;5034304;28;20218;-82
2022/08/24 00:19:53;;;;;;;2.75;1.45;;;23.00;99.90;;;;;;5034094;28;20163;-82
2022/08/24 00:22:19;;;;;;;7.70;1.60;;;23.00;99.90;;;;;;5033993;28;20266;-82
2022/08/24 00:24:45;;;;;;;2.75;1.25;;;23.00;99.90;;;;;;5034045;28;20176;-82
2022/08/24 00:27:11;;;;;;;2.00;1.13;;;22.90;99.90;;;;;;5034103;28;20183;-82
2022/08/24 00:29:37;;;;;;;1.83;1.30;;;22.90;99.90;;;;;;5035762;28;20633;-82
2022/08/24 00:32:03;;;;;;;2.60;1.30;;;22.80;99.90;;;;;;5035125;28;20195;-82
2022/08/24 00:34:29;;;;;;;6.32;1.52;;;22.80;99.90;;;;;;5034263;28;20622;-82
2022/08/24 00:36:55;;;;;;;1.73;1.52;;;22.80;99.90;;;;;;5034080;28;20173;-83
2022/08/24 00:39:21;;;;;;;9.10;1.50;;;22.90;99.90;;;;;;5034231;28;20542;-82
2022/08/24 00:41:49;;;;;;;1.33;1.23;;;22.90;99.90;;;;;;5036809;28;20698;-82
2022/08/24 00:44:17;;;;;;;2.95;1.73;;;22.90;99.90;;;;;;5034806;28;20195;-82
2022/08/24 00:47:10;;;;;;;3.58;1.73;;;22.80;99.90;;;;;;5034983;28;20168;-82
2022/08/24 00:49:53;;;;;;;7.03;1.88;;;22.90;99.90;;;;;;5035346;28;20225;-82
2022/08/24 00:52:24;;;;;;;1.88;1.65;;;22.80;99.90;;;;;;5034960;28;20540;-82
2022/08/24 00:55:00;;;;;;;1.95;1.40;;;22.80;99.90;;;;;;5034070;28;20219;-81
2022/08/24 00:57:30;;;;;;;1.75;1.52;;;22.80;99.90;;;;;;5033843;28;20524;-82
2022/08/24 01:00:02;;;;;;;5.25;1.50;;;22.80;99.90;;;;;;5034033;28;20167;-82
2022/08/24 01:02:34;;;;;;;1.67;1.50;;;22.80;99.90;;;;;;5033906;28;20184;-83
2022/08/24 01:05:04;;;;;;;3.03;2.08;;;22.80;99.90;;;;;;5036162;28;20176;-82
2022/08/24 01:07:33;;;;;;;3.72;1.77;;;22.70;99.90;;;;;;5040060;28;20160;-82
2022/08/24 01:10:03;;;;;;;6.05;1.85;;;22.60;99.90;;;;;;5038748;28;20168;-81
2022/08/24 01:12:32;;;;;;;3.13;2.00;;;22.70;99.90;;;;;;5035443;28;20216;-81
2022/08/24 01:15:00;;;;;;;2.90;1.83;;;22.60;99.90;;;;;;5033825;28;20190;-82
2022/08/24 01:20:11;;;;;;;5.07;1.33;;;22.80;99.90;;;;;;5035446;28;20230;-82
2022/08/24 01:23:00;;;;;;;2.22;1.17;;;22.80;99.90;;;;;;5035083;28;20280;-82
2022/08/24 01:25:28;;;;;;;3.17;1.75;;;22.70;99.90;;;;;;5034394;28;20172;-82
2022/08/24 01:27:58;;;;;;;3.22;1.55;;;22.70;99.90;;;;;;5034597;28;20594;-82
2022/08/24 01:30:25;;;;;;;2.00;1.38;;;22.50;99.90;;;;;;5036409;28;20168;-82
2022/08/24 01:32:56;;;;;;;2.20;1.42;;;22.40;99.90;;;;;;5036117;28;20266;-82
2022/08/24 01:35:22;;;;;;;1.77;1.42;;;22.30;99.90;;;;;;5035672;28;20633;-81
2022/08/24 01:37:49;;;;;;;1.83;1.40;;;22.30;99.90;;;;;;5035278;28;20206;-82
2022/08/24 01:40:17;;;;;;;3.53;1.75;;;22.30;99.90;;;;;;5033607;28;20176;-82
2022/08/24 01:42:52;;;;;;;2.58;2.05;;;22.30;99.90;;;;;;5033712;28;20246;-81
2022/08/24 01:45:19;;;;;;;9.20;2.30;;;22.40;99.90;;;;;;5034954;28;20187;-82
2022/08/24 01:47:45;;;;;;;3.80;1.60;;;22.30;99.90;;;;;;5034736;28;20168;-82
2022/08/24 01:50:11;;;;;;;1.80;1.40;;;22.30;99.90;;;;;;5039262;28;20172;-81
2022/08/24 01:52:40;;;;;;;5.63;1.88;;;22.20;99.90;;;;;;5057711;28;20183;-82
2022/08/24 01:55:08;;;;;;;9.55;1.83;;;22.30;99.90;;;;;;5058361;28;20160;-82
2022/08/24 01:57:34;;;;;;;2.40;1.67;;;22.20;99.90;;;;;;5057078;28;20172;-81
2022/08/24 02:00:00;;;;;;;12.43;2.20;;;22.30;99.90;;;;;;5053446;28;20535;-81
2022/08/24 02:02:29;;;;;;;6.68;1.98;;;22.40;99.90;;;;;;5048935;28;20235;-82
2022/08/24 02:04:55;;;;;;;2.40;1.85;;;22.40;99.90;;;;;;5056709;28;20171;-82
2022/08/24 02:07:21;;;;;;;6.13;2.08;;;22.40;99.90;;;;;;5057949;28;20175;-81
2022/08/24 02:09:47;;;;;;;7.30;1.67;;;22.40;99.90;;;;;;5057842;28;20231;-80
2022/08/24 02:12:13;;;;;;;5.47;2.17;;;22.40;99.90;;;;;;5057357;28;20195;-82
2022/08/24 02:14:39;;;;;;;10.35;1.70;;;22.20;99.90;;;;;;5057049;28;20251;-81
2022/08/24 02:17:06;;;;;;;10.02;1.73;;;22.00;99.90;;;;;;5036793;28;20207;-82
2022/08/24 02:19:33;;;;;;;3.17;1.92;;;22.10;99.90;;;;;;5036349;28;20172;-83
2022/08/24 02:21:59;;;;;;;3.28;1.80;;;22.20;99.90;;;;;;5033495;28;20668;-83
2022/08/24 02:24:25;;;;;;;5.32;1.50;;;22.20;99.90;;;;;;5033928;28;20213;-83
2022/08/24 02:26:52;;;;;;;7.15;1.70;;;22.00;99.90;;;;;;5033203;28;20179;-83
2022/08/24 02:29:17;;;;;;;1.98;1.70;;;21.80;99.90;;;;;;5034633;28;20167;-83
2022/08/24 02:31:43;;;;;;;4.53;1.85;;;21.80;99.90;;;;;;5032951;28;20686;-83
2022/08/24 02:34:08;;;;;;;3.60;2.22;;;21.80;99.90;;;;;;5032369;28;20295;-83
2022/08/24 02:36:34;;;;;;;2.30;1.90;;;21.80;99.90;;;;;;5034210;28;20520;-81
2022/08/24 02:39:00;;;;;;;6.65;1.77;;;21.90;99.90;;;;;;5032715;28;20631;-83
2022/08/24 02:41:26;;;;;;;11.50;1.85;;;21.90;99.90;;;;;;5034116;28;20233;-82
2022/08/24 02:43:53;;;;;;;3.42;1.98;;;21.80;99.90;;;;;;5032864;28;20188;-83
2022/08/24 02:46:26;;;;;;;2.30;1.67;;;21.70;99.90;;;;;;5032460;28;20176;-82
2022/08/24 02:48:51;;;;;;;13.00;2.00;;;21.70;99.90;;;;;;5032657;28;20201;-82
2022/08/24 02:51:23;;;;;;;3.20;1.95;;;21.70;99.90;;;;;;5033850;28;20775;-82
2022/08/24 02:53:49;;;;;;;3.15;2.00;;;21.70;99.90;;;;;;5032352;28;20211;-81
2022/08/24 02:56:16;;;;;;;16.00;2.63;;;21.70;99.90;;;;;;5032772;28;20172;-82
2022/08/24 02:58:42;;;;;;;2.55;1.88;;;21.80;99.90;;;;;;5032771;28;20254;-81
2022/08/24 03:01:09;;;;;;;7.68;2.10;;;21.90;99.90;;;;;;5032335;28;20187;-82
2022/08/24 03:03:35;;;;;;;1.90;1.63;;;21.80;99.90;;;;;;5032789;28;20299;-81
2022/08/24 03:06:01;;;;;;;4.47;1.42;;;21.80;99.90;;;;;;5032136;28;20204;-82
2022/08/24 03:08:26;;;;;;;1.70;1.60;;;21.80;99.90;;;;;;5032343;28;20171;-82
2022/08/24 03:10:52;;;;;;;6.60;2.13;;;21.80;99.90;;;;;;5032312;28;20171;-82
2022/08/24 03:13:17;;;;;;;2.58;2.00;;;21.70;99.90;;;;;;5032173;28;20682;-82
2022/08/24 03:15:45;;;;;;;2.80;1.70;;;21.70;99.90;;;;;;5032135;28;20190;-82
2022/08/24 03:18:11;;;;;;;6.63;1.60;;;21.80;99.90;;;;;;5033115;28;20168;-82
2022/08/24 03:20:37;;;;;;;2.40;1.98;;;21.80;99.90;;;;;;5032071;28;20724;-81
2022/08/24 03:23:04;;;;;;;5.20;1.75;;;21.80;99.90;;;;;;5030922;28;20700;-82
2022/08/24 03:25:30;;;;;;;5.57;1.90;;;21.80;99.90;;;;;;5031090;28;20163;-82
2022/08/24 03:27:55;;;;;;;2.97;1.98;;;21.80;99.90;;;;;;5032582;28;20167;-82
2022/08/24 03:30:22;;;;;;;2.92;1.77;;;21.80;99.90;;;;;;5030905;28;20167;-82
2022/08/24 03:32:48;;;;;;;4.40;1.90;;;21.70;99.90;;;;;;5031722;28;20279;-81
2022/08/24 03:35:15;;;;;;;4.70;1.80;;;21.70;99.90;;;;;;5034900;28;20199;-83
2022/08/24 03:37:40;;;;;;;4.72;2.13;;;21.60;99.90;;;;;;5041386;28;20168;-82
2022/08/24 03:40:08;;;;;;;4.35;2.42;;;21.50;99.90;;;;;;5032156;28;20190;-83
2022/08/24 03:42:34;;;;;;;6.95;1.88;;;21.50;99.90;;;;;;5030575;28;20210;-82
2022/08/24 03:45:00;;;;;;;2.72;2.00;;;21.60;99.90;;;;;;5032316;28;20904;-81
2022/08/24 03:47:26;;;;;;;2.30;1.80;;;21.60;99.90;;;;;;5035135;28;20168;-82
2022/08/24 03:49:52;;;;;;;7.57;1.77;;;21.50;99.90;;;;;;5036270;28;20243;-81
2022/08/24 03:52:17;;;;;;;2.67;1.70;;;21.50;99.90;;;;;;5034764;28;20668;-83
2022/08/24 03:54:43;;;;;;;7.80;2.10;;;21.40;99.90;;;;;;5034789;28;20261;-82
2022/08/24 03:57:09;;;;;;;5.40;2.15;;;21.40;99.90;;;;;;5034633;28;20186;-82
2022/08/24 03:59:34;;;;;;;1.70;1.50;;;21.40;99.90;;;;;;5035426;28;20254;-83
2022/08/24 04:02:00;;;;;;;6.55;2.05;;;21.30;99.90;;;;;;5038183;28;20278;-82
2022/08/24 04:04:26;;;;;;;8.18;2.58;;;21.50;99.90;;;;;;5035315;28;20206;-81
2022/08/24 04:06:52;;;;;;;4.43;1.90;;;21.50;99.90;;;;;;5034744;28;20168;-81
2022/08/24 04:09:18;;;;;;;2.78;1.98;;;21.40;99.90;;;;;;5034752;28;20575;-81
2022/08/24 04:11:44;;;;;;;7.57;1.60;;;21.40;99.90;;;;;;5034939;28;20252;-80
2022/08/24 04:14:10;;;;;;;5.43;1.95;;;21.50;99.90;;;;;;5034934;28;20199;-81
2022/08/24 04:16:37;;;;;;;10.75;1.98;;;21.50;99.90;;;;;;5034442;28;20174;-81
2022/08/24 04:19:03;;;;;;;2.00;1.90;;;21.50;99.90;;;;;;5034805;28;20176;-81
2022/08/24 04:21:32;;;;;;;3.15;2.40;;;21.50;99.90;;;;;;5035851;28;20191;-82
2022/08/24 04:23:58;;;;;;;12.38;2.40;;;21.50;99.90;;;;;;5035797;28;20172;-81
2022/08/24 04:26:29;;;;;;;4.13;1.77;;;21.50;99.90;;;;;;5034330;28;20515;-81
2022/08/24 04:28:55;;;;;;;7.07;2.17;;;21.40;99.90;;;;;;5034499;28;20164;-81
2022/08/24 04:31:21;;;;;;;6.03;1.98;;;21.50;99.90;;;;;;5035756;28;20234;-82
2022/08/24 04:33:50;;;;;;;6.07;2.22;;;21.40;99.90;;;;;;5035610;28;20253;-81
2022/08/24 04:36:19;;;;;;;3.33;1.80;;;21.50;99.90;;;;;;5035482;28;20164;-81
2022/08/24 04:38:46;;;;;;;3.22;2.08;;;21.60;99.90;;;;;;5034156;28;20198;-81
2022/08/24 04:41:13;;;;;;;5.80;1.80;;;21.60;99.90;;;;;;5033978;28;20219;-81
2022/08/24 04:43:44;;;;;;;2.90;2.40;;;21.60;99.90;;;;;;5036350;28;20176;-82
2022/08/24 04:46:13;;;;;;;4.28;1.80;;;21.60;99.90;;;;;;5034117;28;20164;-81
2022/08/24 04:48:40;;;;;;;13.02;2.42;;;21.60;99.90;;;;;;5034419;28;20197;-82
2022/08/24 04:51:07;;;;;;;2.42;2.13;;;21.60;99.90;;;;;;5034092;28;20683;-80
2022/08/24 04:53:34;;;;;;;3.10;2.30;;;21.50;99.90;;;;;;5034176;28;20211;-82
2022/08/24 04:56:00;;;;;;;8.27;2.33;;;21.40;99.90;;;;;;5035109;28;20633;-82
2022/08/24 04:58:27;;;;;;;2.20;2.00;;;21.30;99.90;;;;;;5033203;28;20179;-81
2022/08/24 05:00:53;;;;;;;4.22;1.80;;;21.20;99.90;;;;;;5033615;28;20171;-81
2022/08/24 05:03:20;;;;;;;3.83;2.20;;;21.30;99.90;;;;;;5033841;28;20204;-81
2022/08/24 05:05:49;;;;;;;6.35;2.53;;;21.50;99.90;;;;;;5033949;28;20187;-82
2022/08/24 05:08:16;;;;;;;5.95;2.70;;;21.50;99.90;;;;;;5033752;28;20172;-81
2022/08/24 05:10:46;;;;;;;2.97;2.20;;;21.70;99.90;;;;;;5034805;28;20167;-82
2022/08/24 05:13:13;;;;;;;6.43;2.42;;;21.70;99.90;;;;;;5033525;28;20206;-82
2022/08/24 05:15:44;;;;;;;4.32;2.15;;;21.60;99.90;;;;;;5036339;28;20168;-81
2022/08/24 05:18:10;;;;;;;4.20;2.47;;;21.70;99.90;;;;;;5034459;28;20172;-82
2022/08/24 05:20:40;;;;;;;3.67;2.42;;;21.70;99.90;;;;;;5037240;28;20172;-82
2022/08/24 05:23:05;;;;;;;2.78;2.35;;;21.60;99.90;;;;;;5037084;28;20222;-83
2022/08/24 05:25:31;;;;;;;3.38;2.33;;;21.60;99.90;;;;;;5039514;28;20640;-82
2022/08/24 05:27:57;;;;;;;3.53;2.30;;;21.60;99.90;;;;;;5034812;28;20633;-82
2022/08/24 05:30:23;;;;;;;4.57;2.65;;;21.60;99.90;;;;;;5035757;28;20286;-82
2022/08/24 05:32:48;;;;;;;3.08;2.53;;;21.80;99.90;;;;;;5034414;28;20191;-82
2022/08/24 05:35:14;;;;;;;5.55;2.15;;;21.80;99.90;;;;;;5034434;28;20176;-83
2022/08/24 05:37:41;;;;;;;4.63;2.95;;;22.00;99.90;;;;;;5035558;28;20221;-82
2022/08/24 05:40:10;;;;;;;21.73;3.28;;;22.10;99.90;;;;;;5034345;28;20187;-82
2022/08/24 05:42:36;;;;;;;4.03;2.97;;;22.20;99.90;;;;;;5034654;28;20188;-82
2022/08/24 05:45:03;;;;;;;5.78;2.78;;;22.30;99.90;;;;;;5034514;28;20195;-82
2022/08/24 05:47:29;;;;;;;4.05;2.38;;;22.40;99.90;;;;;;5033817;28;20163;-81
2022/08/24 05:49:54;;;;;;;7.03;2.42;;;22.50;99.90;;;;;;5033756;28;20279;-81
2022/08/24 05:52:21;;;;;;;5.65;3.25;;;22.60;99.90;;;;;;5033366;28;20286;-82
2022/08/24 05:54:51;;;;;;;11.38;3.30;;;22.80;99.90;;;;;;5034699;28;20239;-82
2022/08/24 05:57:17;;;;;;;7.90;3.60;;;22.90;99.90;;;;;;5034951;28;20171;-81
2022/08/24 05:59:43;;;;;;;10.05;3.75;;;23.00;99.90;;;;;;5035743;28;20255;-82
2022/08/24 06:02:09;;;;;;;9.35;3.70;;;23.20;99.90;;;;;;5039898;28;20191;-85
2022/08/24 06:04:36;;;;;;;20.13;4.63;;;23.30;99.90;;;;;;5052223;28;20168;-81
2022/08/24 06:07:03;;;;;;;6.35;4.55;;;23.30;99.90;;;;;;5038261;28;20226;-82
2022/08/24 06:09:29;;;;;;;16.92;9.35;;;23.30;99.90;;;;;;5033653;28;20644;-82
2022/08/24 06:11:54;;;;;;;10.23;6.63;;;23.40;99.90;;;;;;5032856;28;20203;-82
2022/08/24 06:14:20;;;;;;;29.70;11.88;;;23.60;99.90;;;;;;5033375;28;20211;-82
2022/08/24 06:16:47;;;;;;;18.77;12.02;;;23.70;99.90;;;;;;5033240;28;20571;-82
2022/08/24 06:19:15;;;;;;;25.80;12.20;;;23.60;99.90;;;;;;5033023;28;20171;-81
2022/08/24 06:21:42;;;;;;;30.98;13.75;;;23.50;99.90;;;;;;5032805;28;20183;-82
2022/08/24 06:24:07;;;;;;;20.70;13.35;;;23.50;99.90;;;;;;5033058;28;20183;-82
2022/08/24 06:29:19;;;;;;;54.28;16.20;;;23.90;99.90;;;;;;5033781;28;20255;-82
2022/08/24 06:31:47;;;;;;;36.55;15.43;;;24.00;99.90;;;;;;5033201;28;20707;-83
2022/08/24 06:34:16;;;;;;;53.58;16.48;;;24.00;99.90;;;;;;5033238;28;20207;-81
2022/08/24 06:36:41;;;;;;;41.47;17.38;;;23.90;99.90;;;;;;5033216;28;20168;-82
2022/08/24 06:39:07;;;;;;;45.13;16.65;;;23.90;99.90;;;;;;5032100;28;20168;-82
2022/08/24 06:41:34;;;;;;;44.83;16.15;;;23.90;99.90;;;;;;5032087;28;20219;-82
2022/08/24 06:44:00;;;;;;;39.80;15.73;;;24.10;99.90;;;;;;5031952;28;20218;-81
2022/08/24 06:46:27;;;;;;;27.98;14.45;;;24.30;99.90;;;;;;5031781;28;20187;-81
2022/08/24 06:48:53;;;;;;;41.65;15.90;;;24.20;99.90;;;;;;5031545;28;20170;-81
2022/08/24 06:51:21;;;;;;;38.17;15.82;;;24.30;99.90;;;;;;5031449;28;20580;-81
2022/08/24 06:53:49;;;;;;;32.53;15.90;;;24.30;99.90;;;;;;5031931;28;20216;-81
2022/08/24 06:56:15;;;;;;;24.10;15.82;;;24.40;99.90;;;;;;5031795;28;20178;-81
2022/08/24 06:58:42;;;;;;;36.75;15.98;;;24.40;99.90;;;;;;5031504;28;20164;-81
2022/08/24 07:01:17;;;;;;;53.20;15.63;;;24.40;99.90;;;;;;5032380;28;20191;-82
2022/08/24 07:03:43;;;;;;;46.35;16.58;;;24.50;99.90;;;;;;5032948;28;20639;-82
2022/08/24 07:06:11;;;;;;;36.58;17.00;;;24.60;99.90;;;;;;5032784;28;20168;-82
2022/08/24 07:08:37;;;;;;;36.08;14.25;;;24.80;99.90;;;;;;5031975;28;20629;-90
2022/08/24 07:11:04;;;;;;;40.90;14.77;;;25.00;99.90;;;;;;5031302;28;20217;-81
2022/08/24 07:13:30;;;;;;;34.63;13.90;;;25.10;99.90;;;;;;5031401;28;20254;-81
2022/08/24 07:15:57;;;;;;;47.25;13.95;;;25.20;99.90;;;;;;5031431;28;20179;-82
2022/08/24 07:18:23;;;;;;;27.13;12.40;;;25.40;99.90;;;;;;5031489;28;20164;-82
2022/08/24 07:20:49;;;;;;;21.92;12.52;;;25.50;99.90;;;;;;5032209;28;20168;-84
2022/08/24 07:23:16;;;;;;;29.60;11.48;;;25.50;99.90;;;;;;5032306;28;20168;-82
2022/08/24 07:25:43;;;;;;;25.27;11.52;;;25.50;99.90;;;;;;5032701;28;20163;-83
2022/08/24 07:28:10;;;;;;;16.60;10.43;;;25.70;99.90;;;;;;5031526;28;20182;-83
2022/08/24 07:30:36;;;;;;;26.48;9.77;;;25.50;99.90;;;;;;5031187;28;20266;-83
2022/08/24 07:33:03;;;;;;;25.33;10.18;;;25.50;99.90;;;;;;5031099;28;20195;-83
2022/08/24 07:35:31;;;;;;;19.48;9.95;;;25.70;99.90;;;;;;5032615;28;20704;-82
2022/08/24 07:37:57;;;;;;;27.30;8.65;;;26.00;99.90;;;;;;5031529;28;20206;-84
2022/08/24 07:40:25;;;;;;;18.73;8.23;;;26.20;99.90;;;;;;5033153;28;20536;-83
2022/08/24 07:42:52;;;;;;;23.20;7.90;;;26.40;99.90;;;;;;5031540;28;20191;-83
2022/08/24 07:45:18;;;;;;;11.77;7.40;;;26.70;99.90;;;;;;5031508;28;20249;-83
2022/08/24 07:47:44;;;;;;;29.15;8.38;;;26.70;99.90;;;;;;5031394;28;20628;-84
2022/08/24 07:50:12;;;;;;;10.13;5.85;;;26.70;99.90;;;;;;5031930;28;20224;-84
2022/08/24 07:52:37;;;;;;;7.55;4.30;;;26.70;99.90;;;;;;5031384;28;20188;-83
2022/08/24 07:55:04;;;;;;;12.27;4.15;;;26.80;99.90;;;;;;5032583;28;20215;-81
2022/08/24 07:57:31;;;;;;;19.52;6.93;;;26.80;99.90;;;;;;5032285;28;20186;-81
2022/08/24 08:00:00;;;;;;;18.65;4.57;;;26.50;99.90;;;;;;5032255;28;20164;-81
2022/08/24 08:02:26;;;;;;;10.30;4.18;;;26.40;99.90;;;;;;5032049;28;20202;-81
2022/08/24 08:04:54;;;;;;;6.68;3.28;;;26.60;99.90;;;;;;5031497;28;20242;-83
2022/08/24 08:07:20;;;;;;;7.47;4.18;;;26.30;99.90;;;;;;5032736;28;20168;-81
2022/08/24 08:09:45;;;;;;;15.20;5.05;;;26.50;99.90;;;;;;5033084;28;20636;-85
2022/08/24 08:12:11;;;;;;;12.65;4.82;;;26.80;99.90;;;;;;5029546;28;20230;-82
2022/08/24 08:14:37;;;;;;;7.95;5.35;;;26.90;99.90;;;;;;5013348;28;20767;-82
2022/08/24 08:17:03;;;;;;;11.05;4.80;;;27.00;99.90;;;;;;5032737;28;20275;-83
2022/08/24 08:19:29;;;;;;;7.45;4.82;;;26.90;99.90;;;;;;5016322;28;20190;-82
2022/08/24 08:24:43;;;;;;;20.10;5.40;;;26.70;99.90;;;;;;5012929;28;20175;-81
2022/08/24 08:27:11;;;;;;;17.77;6.55;;;26.90;99.90;;;;;;5012132;28;20676;-80
2022/08/24 08:29:42;;;;;;;12.15;5.45;;;26.90;99.90;;;;;;5014435;28;20185;-84
2022/08/24 08:32:09;;;;;;;7.38;5.93;;;27.00;99.90;;;;;;5032298;28;20180;-83
2022/08/24 08:34:35;;;;;;;6.03;5.43;;;27.20;99.90;;;;;;5022506;28;20220;-82
2022/08/24 08:37:02;;;;;;;11.57;7.28;;;27.40;99.90;;;;;;5015320;28;20169;-81
2022/08/24 08:39:30;;;;;;;9.43;5.10;;;27.80;99.90;;;;;;5027692;28;20202;-80
2022/08/24 08:42:16;;;;;;;9.27;4.93;;;27.70;99.90;;;;;;5034905;28;20696;-80
2022/08/24 08:44:51;;;;;;;13.52;5.68;;;27.90;99.90;;;;;;5037360;28;20186;-81
2022/08/24 08:47:51;;;;;;;6.93;5.45;;;27.80;99.90;;;;;;5037932;28;20207;-81
2022/08/24 08:50:32;;;;;;;5.80;4.80;;;27.60;99.90;;;;;;5032166;28;20173;-80
2022/08/24 08:53:35;;;;;;;8.52;4.53;;;27.80;99.90;;;;;;5016577;28;20200;-84
2022/08/24 08:56:04;;;;;;;7.28;4.45;;;28.00;99.90;;;;;;5017072;28;20175;-83
2022/08/24 08:58:38;;;;;;;5.55;4.35;;;27.70;99.90;;;;;;5016399;28;20180;-80
2022/08/24 09:01:31;;;;;;;4.43;3.60;;;27.70;99.90;;;;;;5017684;28;20199;-84
2022/08/24 09:04:37;;;;;;;7.03;3.10;;;27.70;99.90;;;;;;5019002;28;20172;-83
2022/08/24 09:07:08;;;;;;;6.68;3.40;;;27.80;99.90;;;;;;5017462;28;20184;-82
2022/08/24 09:09:46;;;;;;;5.30;3.17;;;28.00;99.90;;;;;;5016800;28;20180;-80
2022/08/24 09:12:36;;;;;;;4.80;3.55;;;27.80;99.90;;;;;;5018800;28;20184;-81
2022/08/24 09:15:30;;;;;;;15.38;4.30;;;27.80;99.90;;;;;;5020032;28;20203;-80
2022/08/24 09:18:20;;;;;;;8.23;5.20;;;27.90;99.90;;;;;;5026588;28;20172;-80
2022/08/24 09:21:18;;;;;;;23.35;4.25;;;27.80;99.90;;;;;;5034901;28;20175;-81
2022/08/24 09:24:18;;;;;;;21.55;3.90;;;27.80;99.90;;;;;;5033578;28;20226;-81
2022/08/24 09:26:55;;;;;;;10.05;3.55;;;27.80;99.90;;;;;;5037605;28;20306;-80
2022/08/24 09:29:39;;;;;;;8.02;4.75;;;27.90;99.90;;;;;;5034587;28;20216;-82
2022/08/24 09:32:27;;;;;;;12.57;4.95;;;27.80;99.90;;;;;;5035463;28;20613;-82
2022/08/24 09:35:02;;;;;;;19.23;5.28;;;28.10;99.90;;;;;;5035716;28;20207;-81
2022/08/24 09:37:56;;;;;;;11.07;4.50;;;27.90;99.90;;;;;;5036306;28;20534;-81
2022/08/24 09:40:35;;;;;;;5.07;4.68;;;28.10;99.90;;;;;;5036381;28;20563;-83
2022/08/24 09:43:14;;;;;;;6.30;2.55;;;28.30;99.90;;;;;;5036343;28;20278;-83
2022/08/24 09:45:58;;;;;;;13.85;4.63;;;28.40;99.90;;;;;;5034072;28;20636;-83
2022/08/24 09:48:35;;;;;;;18.92;5.03;;;28.50;99.90;;;;;;5024865;28;20176;-83
2022/08/24 09:51:41;;;;;;;4.82;4.35;;;28.70;99.90;;;;;;5013783;28;20730;-82
2022/08/24 09:54:35;;;;;;;9.68;3.55;;;28.80;99.90;;;;;;5014528;28;20203;-82
2022/08/24 09:57:32;;;;;;;13.40;3.33;;;28.80;99.90;;;;;;5015232;28;20175;-82
2022/08/24 10:00:33;;;;;;;10.93;4.38;;;28.80;99.90;;;;;;5021478;28;20176;-81
2022/08/24 10:03:26;;;;;;;12.93;5.00;;;28.60;99.90;;;;;;5041039;28;20246;-82
2022/08/24 10:06:16;;;;;;;8.55;2.33;;;28.60;99.90;;;;;;5015444;28;20536;-83
2022/08/24 10:09:17;;;;;;;3.85;2.05;;;28.70;99.90;;;;;;5024036;28;20569;-82
2022/08/24 10:11:48;;;;;;;7.30;2.83;;;28.60;99.90;;;;;;4995210;28;20268;-82
2022/08/24 10:14:38;;;;;;;3.42;3.13;;;28.40;99.90;;;;;;5012387;28;20227;-81
2022/08/24 10:17:35;;;;;;;9.95;1.73;;;28.50;99.90;;;;;;5018507;28;20187;-80
2022/08/24 10:20:08;;;;;;;8.80;2.70;;;28.80;99.90;;;;;;5015675;28;20226;-81
2022/08/24 10:22:51;;;;;;;9.98;1.90;;;28.70;99.90;;;;;;5014027;28;20254;-81
2022/08/24 10:25:16;;;;;;;5.32;3.55;;;28.80;99.90;;;;;;5017956;28;20210;-82
2022/08/24 10:28:16;;;;;;;9.60;2.60;;;28.90;99.90;;;;;;5014072;28;20220;-82
2022/08/24 10:30:56;;;;;;;17.80;2.33;;;28.90;99.90;;;;;;5029145;28;20267;-81
2022/08/24 10:33:32;;;;;;;4.20;1.80;;;29.00;99.90;;;;;;5014620;28;20208;-82
2022/08/24 10:36:30;;;;;;;7.00;1.83;;;29.20;99.90;;;;;;5013550;28;20167;-82
2022/08/24 10:42:10;;;;;;;6.93;1.75;;;29.40;99.90;;;;;;5013954;28;20230;-82
2022/08/24 10:44:57;;;;;;;2.72;1.83;;;29.40;99.90;;;;;;5013102;28;20215;-82
2022/08/24 10:47:29;;;;;;;9.18;1.92;;;29.50;99.90;;;;;;5012505;28;20330;-81
2022/08/24 10:50:27;;;;;;;4.50;1.90;;;29.40;99.90;;;;;;5012374;28;20179;-81
2022/08/24 10:53:03;;;;;;;10.60;1.92;;;29.50;99.90;;;;;;5013088;28;20188;-81
2022/08/24 10:55:32;;;;;;;1.95;1.85;;;29.40;99.90;;;;;;5016704;28;20230;-81
2022/08/24 10:58:19;;;;;;;3.10;1.33;;;29.40;99.90;;;;;;5023506;28;20271;-81
2022/08/24 11:00:45;;;;;;;1.58;1.33;;;29.40;99.90;;;;;;5012909;28;20179;-82
2022/08/24 11:03:20;;;;;;;2.42;1.70;;;29.50;99.90;;;;;;5014746;28;20162;-81
2022/08/24 11:05:53;;;;;;;7.22;1.58;;;29.30;99.90;;;;;;5017427;28;20186;-81
2022/08/24 11:08:32;;;;;;;7.43;1.35;;;29.40;99.90;;;;;;5031380;28;20168;-83
2022/08/24 11:11:12;;;;;;;8.45;1.50;;;29.50;99.90;;;;;;5017145;28;20548;-83
2022/08/24 11:13:52;;;;;;;2.85;1.30;;;29.40;99.90;;;;;;5016065;28;20290;-82
2022/08/24 11:16:25;;;;;;;4.93;1.20;;;29.60;99.90;;;;;;5014871;28;20322;-82
2022/08/24 11:18:54;;;;;;;2.30;1.20;;;29.60;99.90;;;;;;5014453;28;20172;-83
2022/08/24 11:21:47;;;;;;;1.63;1.50;;;29.70;99.90;;;;;;5012510;28;20279;-82
2022/08/24 11:24:28;;;;;;;8.20;1.80;;;30.00;99.90;;;;;;5020188;28;20541;-82
2022/08/24 11:27:26;;;;;;;4.05;1.05;;;29.90;99.90;;;;;;5022730;28;20170;-82
2022/08/24 11:29:51;;;;;;;2.65;1.08;;;30.00;99.90;;;;;;5018355;28;20176;-83
2022/08/24 11:32:36;;;;;;;5.68;1.15;;;30.10;99.90;;;;;;5015227;28;20742;-82
2022/08/24 11:35:23;;;;;;;12.77;0.98;;;30.20;99.90;;;;;;5014501;28;20589;-83
2022/08/24 11:37:55;;;;;;;3.20;0.70;;;30.20;99.90;;;;;;5018293;28;20194;-83
2022/08/24 11:40:26;;;;;;;1.92;0.90;;;30.20;99.90;;;;;;5017178;28;20172;-83
2022/08/24 11:43:08;;;;;;;3.58;0.63;;;30.20;99.90;;;;;;5017085;28;20206;-83
2022/08/24 11:45:41;;;;;;;0.82;0.70;;;30.10;99.90;;;;;;5031701;28;20716;-83
2022/08/24 11:48:16;;;;;;;8.00;0.80;;;30.20;99.90;;;;;;5017968;28;20184;-83
2022/08/24 11:50:57;;;;;;;1.20;0.70;;;30.10;99.90;;;;;;5019001;28;20160;-83
2022/08/24 11:54:12;;;;;;;3.58;1.05;;;30.20;99.90;;;;;;5017957;28;20222;-83
2022/08/24 11:56:47;;;;;;;2.80;1.00;;;30.40;99.90;;;;;;5000076;28;20606;-83
2022/08/24 11:59:28;;;;;;;1.77;0.80;;;30.60;99.90;;;;;;5019125;28;20262;-83
2022/08/24 12:02:02;;;;;;;0.98;0.75;;;30.60;99.90;;;;;;5016487;28;20569;-83
2022/08/24 12:05:03;;;;;;;1.23;0.80;;;30.60;99.90;;;;;;5016282;28;20323;-83
2022/08/24 12:07:53;;;;;;;2.72;0.90;;;30.80;99.90;;;;;;4983587;28;20191;-83
2022/08/24 12:10:34;;;;;;;2.40;1.13;;;31.10;99.90;;;;;;5020395;28;20199;-83
2022/08/24 12:13:17;;;;;;;3.45;1.45;;;31.00;99.90;;;;;;5026884;28;20195;-82
2022/08/24 12:16:11;;;;;;;4.82;0.90;;;30.90;99.90;;;;;;5027276;28;20183;-83
2022/08/24 12:19:02;;;;;;;3.47;0.90;;;30.80;99.90;;;;;;5026776;28;20164;-82
2022/08/24 12:21:32;;;;;;;8.80;0.90;;;30.90;99.90;;;;;;5023120;28;20188;-83
2022/08/24 12:24:26;;;;;;;4.00;0.80;;;30.90;99.90;;;;;;5030833;28;20760;-82
2022/08/24 12:27:21;;;;;;;10.07;1.20;;;31.10;99.90;;;;;;5029800;28;20208;-83
2022/08/24 12:29:55;;;;;;;5.97;1.00;;;31.20;99.90;;;;;;5035935;28;20165;-82
2022/08/24 12:32:36;;;;;;;3.92;0.70;;;31.10;99.90;;;;;;5037596;28;20229;-82
2022/08/24 12:35:17;;;;;;;3.15;0.90;;;30.90;99.90;;;;;;5039289;28;20226;-82
2022/08/24 12:37:50;;;;;;;1.55;0.90;;;30.80;99.90;;;;;;5040042;28;20175;-82
2022/08/24 12:40:43;;;;;;;2.70;1.00;;;30.80;99.90;;;;;;5038428;28;20228;-83
2022/08/24 12:43:18;;;;;;;1.00;0.70;;;30.90;99.90;;;;;;5031770;28;20226;-83
2022/08/24 12:45:44;;;;;;;4.18;0.98;;;31.20;99.90;;;;;;5016361;28;20182;-83
2022/08/24 12:48:38;;;;;;;7.78;1.70;;;31.20;99.90;;;;;;5016791;28;20533;-83
2022/08/24 12:51:50;;;;;;;3.42;0.80;;;31.20;99.90;;;;;;5014719;28;20619;-83
2022/08/24 12:54:50;;;;;;;5.85;0.90;;;31.40;99.90;;;;;;5014923;28;20230;-83
2022/08/24 12:57:33;;;;;;;4.43;0.90;;;31.30;99.90;;;;;;5016421;28;20205;-83
2022/08/24 13:00:19;;;;;;;5.32;1.00;;;31.20;99.90;;;;;;5015249;28;20180;-83
2022/08/24 13:02:57;;;;;;;5.60;1.10;;;31.20;99.90;;;;;;5033072;28;20215;-82
2022/08/24 13:05:23;;;;;;;5.90;1.00;;;31.40;99.90;;;;;;5019375;28;20164;-83
2022/08/24 13:07:51;;;;;;;5.32;1.10;;;31.50;99.90;;;;;;5016681;28;20716;-82
2022/08/24 13:10:23;;;;;;;1.65;1.13;;;31.80;99.90;;;;;;5015680;28;20302;-82
2022/08/24 13:13:04;;;;;;;3.35;0.80;;;31.70;99.90;;;;;;5015131;28;20191;-82
2022/08/24 13:15:33;;;;;;;0.90;0.80;;;31.70;99.90;;;;;;5020259;28;20663;-82
2022/08/24 13:18:08;;;;;;;6.35;0.80;;;31.30;99.90;;;;;;5024452;28;20247;-82
2022/08/24 13:20:54;;;;;;;9.23;1.40;;;30.90;99.90;;;;;;5030240;28;20179;-83